Time;durP1;ratioP1;P1;durP2;ratioP2;P2;SDS_P1;SDS_P2;PMS_P1;PMS_P2;Temp;Humidity;BMP_temperature;BMP_pressure;BME280_temperature;BME280_humidity;BME280_pressure;Samples;Min_cycle;Max_cycle;Signal;HPM_P1;HPM_P2
2023/10/29 00:01:05;;;;;;;1999.90;999.90;;;;;;;;;;5059397;28;20041;-92
2023/10/29 00:03:32;;;;;;;1999.90;999.90;;;;;;;;;;5058919;28;20064;-89
2023/10/29 00:05:58;;;;;;;1999.90;999.90;;;;;;;;;;5060028;28;20643;-89
2023/10/29 00:08:25;;;;;;;1999.90;999.90;;;;;;;;;;5063464;28;20049;-89
2023/10/29 00:10:53;;;;;;;1999.90;999.90;;;;;;;;;;5056441;28;20057;-88
2023/10/29 00:13:20;;;;;;;1999.90;999.90;;;;;;;;;;5058942;28;20045;-90
2023/10/29 00:15:46;;;;;;;1999.90;999.90;;;;;;;;;;5058236;28;20056;-90
2023/10/29 00:18:13;;;;;;;1999.90;999.90;;;;;;;;;;5058361;28;20404;-88
2023/10/29 00:20:39;;;;;;;1999.90;999.90;;;;;;;;;;5057861;28;20459;-90
2023/10/29 00:23:07;;;;;;;1999.90;999.90;;;;;;;;;;5059470;28;20052;-88
2023/10/29 00:25:33;;;;;;;1999.90;999.90;;;;;;;;;;5058620;28;20062;-89
2023/10/29 00:28:01;;;;;;;1999.90;999.90;;;;;;;;;;5060100;28;20136;-86
2023/10/29 00:30:28;;;;;;;1999.90;999.90;;;;;;;;;;5054874;28;20053;-89
2023/10/29 00:32:54;;;;;;;1999.90;999.90;;;;;;;;;;5055946;28;20044;-88
2023/10/29 00:35:21;;;;;;;1999.90;999.90;;;;;;;;;;5063023;28;20055;-88
2023/10/29 00:37:48;;;;;;;1999.90;999.90;;;;;;;;;;5061606;28;20509;-88
2023/10/29 00:40:14;;;;;;;1999.90;999.90;;;;;;;;;;5061790;28;20454;-87
2023/10/29 00:42:41;;;;;;;1999.90;999.90;;;;;;;;;;5060531;28;20059;-87
2023/10/29 00:45:10;;;;;;;1999.90;999.90;;;;;;;;;;5063629;28;20061;-88
2023/10/29 00:47:36;;;;;;;1999.90;999.90;;;;;;;;;;5061869;28;20045;-88
2023/10/29 00:50:03;;;;;;;1999.90;999.90;;;;;;;;;;5061861;28;20409;-88
2023/10/29 00:52:31;;;;;;;1999.90;999.90;;;;;;;;;;5059948;28;20494;-87
2023/10/29 00:54:58;;;;;;;1999.90;999.90;;;;;;;;;;5061514;28;20066;-87
2023/10/29 00:57:25;;;;;;;1999.90;999.90;;;;;;;;;;5063644;28;20037;-88
2023/10/29 00:59:52;;;;;;;1999.90;999.90;;;;;;;;;;5061513;28;20048;-87
2023/10/29 01:02:19;;;;;;;1999.90;999.90;;;;;;;;;;5060976;28;20413;-88
2023/10/29 01:04:46;;;;;;;1999.90;999.90;;;;;;;;;;5065607;28;20428;-87
2023/10/29 01:07:12;;;;;;;1999.90;999.90;;;;;;;;;;5055906;28;20049;-87
2023/10/29 01:09:40;;;;;;;1999.90;999.90;;;;;;;;;;5063201;28;20041;-87
2023/10/29 01:12:14;;;;;;;1999.90;999.90;;;;;;;;;;5057562;28;20047;-88
2023/10/29 01:14:41;;;;;;;1999.90;999.90;;;;;;;;;;5057778;28;20052;-87
2023/10/29 01:17:08;;;;;;;1999.90;999.90;;;;;;;;;;5059973;28;20041;-87
2023/10/29 01:19:35;;;;;;;1999.90;999.90;;;;;;;;;;5062222;28;20040;-87
2023/10/29 01:22:02;;;;;;;1999.90;999.90;;;;;;;;;;5060127;28;20059;-88
2023/10/29 01:24:28;;;;;;;1999.90;999.90;;;;;;;;;;5062883;28;20052;-88
2023/10/29 01:26:55;;;;;;;1999.90;999.90;;;;;;;;;;5061656;28;20052;-88
2023/10/29 01:29:22;;;;;;;1999.90;999.90;;;;;;;;;;5063597;28;20051;-88
2023/10/29 01:31:48;;;;;;;1999.90;999.90;;;;;;;;;;5058400;28;20080;-88
2023/10/29 01:34:15;;;;;;;1999.90;999.90;;;;;;;;;;5062076;28;20059;-88
2023/10/29 01:36:43;;;;;;;1999.90;999.90;;;;;;;;;;5064122;28;20044;-88
2023/10/29 01:39:09;;;;;;;1999.90;999.90;;;;;;;;;;5061882;28;20412;-88
2023/10/29 01:41:36;;;;;;;1999.90;999.90;;;;;;;;;;5061850;28;20063;-88
2023/10/29 01:44:02;;;;;;;1999.90;999.90;;;;;;;;;;5062541;28;20492;-89
2023/10/29 01:46:29;;;;;;;1999.90;999.90;;;;;;;;;;5057578;28;20056;-89
2023/10/29 01:48:55;;;;;;;1999.90;999.90;;;;;;;;;;5057925;28;20052;-88
2023/10/29 01:51:22;;;;;;;1999.90;999.90;;;;;;;;;;5059381;28;20060;-88
2023/10/29 01:53:50;;;;;;;1999.90;999.90;;;;;;;;;;5062324;28;20040;-88
2023/10/29 01:56:16;;;;;;;1999.90;999.90;;;;;;;;;;5056914;28;20056;-88
2023/10/29 01:58:43;;;;;;;1999.90;999.90;;;;;;;;;;5059159;28;20049;-88
2023/10/29 02:01:10;;;;;;;1999.90;999.90;;;;;;;;;;5060828;28;20523;-88
2023/10/29 02:03:36;;;;;;;1999.90;999.90;;;;;;;;;;5062494;28;20128;-87
2023/10/29 02:06:03;;;;;;;1999.90;999.90;;;;;;;;;;5061230;28;20393;-88
2023/10/29 02:08:30;;;;;;;1999.90;999.90;;;;;;;;;;5061482;28;20049;-88
2023/10/29 02:10:58;;;;;;;1999.90;999.90;;;;;;;;;;5060256;28;20095;-88
2023/10/29 02:13:24;;;;;;;1999.90;999.90;;;;;;;;;;5061301;28;20045;-88
2023/10/29 02:15:51;;;;;;;1999.90;999.90;;;;;;;;;;5059816;28;20409;-88
2023/10/29 02:18:17;;;;;;;1999.90;999.90;;;;;;;;;;5061908;28;20059;-87
2023/10/29 02:20:44;;;;;;;1999.90;999.90;;;;;;;;;;5058271;28;20052;-88
2023/10/29 02:23:12;;;;;;;1999.90;999.90;;;;;;;;;;5059805;28;20100;-88
2023/10/29 02:25:38;;;;;;;1999.90;999.90;;;;;;;;;;5062635;28;20044;-88
2023/10/29 02:28:05;;;;;;;1999.90;999.90;;;;;;;;;;5053178;28;20055;-88
2023/10/29 02:30:31;;;;;;;1999.90;999.90;;;;;;;;;;5060841;28;20052;-87
2023/10/29 02:32:57;;;;;;;1999.90;999.90;;;;;;;;;;5060236;28;20504;-87
2023/10/29 02:35:24;;;;;;;1999.90;999.90;;;;;;;;;;5059436;28;20049;-87
2023/10/29 02:37:51;;;;;;;1999.90;999.90;;;;;;;;;;5060457;28;20474;-87
2023/10/29 02:40:19;;;;;;;1999.90;999.90;;;;;;;;;;5059228;28;20056;-87
2023/10/29 02:42:45;;;;;;;1999.90;999.90;;;;;;;;;;5061933;28;20048;-87
2023/10/29 02:45:12;;;;;;;1999.90;999.90;;;;;;;;;;5060829;28;20474;-87
2023/10/29 02:47:39;;;;;;;1999.90;999.90;;;;;;;;;;5061229;28;20461;-87
2023/10/29 02:50:06;;;;;;;1999.90;999.90;;;;;;;;;;5058457;28;20045;-87
2023/10/29 02:52:32;;;;;;;1999.90;999.90;;;;;;;;;;5057175;28;20044;-87
2023/10/29 02:54:59;;;;;;;1999.90;999.90;;;;;;;;;;5061414;28;20056;-87
2023/10/29 02:57:29;;;;;;;1999.90;999.90;;;;;;;;;;5056148;28;20147;-87
2023/10/29 02:59:55;;;;;;;1999.90;999.90;;;;;;;;;;5056632;28;20059;-87
2023/10/29 03:02:22;;;;;;;1999.90;999.90;;;;;;;;;;5057481;28;20048;-89
2023/10/29 03:04:48;;;;;;;1999.90;999.90;;;;;;;;;;5062401;28;20053;-88
2023/10/29 03:07:15;;;;;;;1999.90;999.90;;;;;;;;;;5060645;28;20052;-89
2023/10/29 03:09:41;;;;;;;1999.90;999.90;;;;;;;;;;5060412;28;20045;-87
2023/10/29 03:12:08;;;;;;;1999.90;999.90;;;;;;;;;;5059480;28;20058;-88
2023/10/29 03:14:36;;;;;;;1999.90;999.90;;;;;;;;;;5057831;28;20048;-88
2023/10/29 03:17:02;;;;;;;1999.90;999.90;;;;;;;;;;5062753;28;20044;-88
2023/10/29 03:19:29;;;;;;;1999.90;999.90;;;;;;;;;;5063703;28;20041;-89
2023/10/29 03:21:55;;;;;;;1999.90;999.90;;;;;;;;;;5057254;28;20083;-87
2023/10/29 03:24:22;;;;;;;1999.90;999.90;;;;;;;;;;5054872;28;20056;-88
2023/10/29 03:26:48;;;;;;;1999.90;999.90;;;;;;;;;;5056174;28;20049;-87
2023/10/29 03:29:15;;;;;;;1999.90;999.90;;;;;;;;;;5059078;28;20059;-87
2023/10/29 03:31:43;;;;;;;1999.90;999.90;;;;;;;;;;5058199;28;20045;-87
2023/10/29 03:34:11;;;;;;;1999.90;999.90;;;;;;;;;;5058970;28;20390;-87
2023/10/29 03:36:38;;;;;;;1999.90;999.90;;;;;;;;;;5064238;28;20045;-86
2023/10/29 03:39:05;;;;;;;1999.90;999.90;;;;;;;;;;5064883;28;20051;-88
2023/10/29 03:41:31;;;;;;;1999.90;999.90;;;;;;;;;;5066725;28;20060;-89
2023/10/29 03:43:58;;;;;;;1999.90;999.90;;;;;;;;;;5066353;28;20490;-88
2023/10/29 03:46:25;;;;;;;1999.90;999.90;;;;;;;;;;5063906;28;20049;-88
2023/10/29 03:48:53;;;;;;;1999.90;999.90;;;;;;;;;;5063629;28;20061;-87
2023/10/29 03:51:20;;;;;;;1999.90;999.90;;;;;;;;;;5061544;28;20482;-87
2023/10/29 03:53:46;;;;;;;1999.90;999.90;;;;;;;;;;5060711;28;20051;-87
2023/10/29 03:56:13;;;;;;;1999.90;999.90;;;;;;;;;;5059294;28;20045;-88
2023/10/29 03:58:40;;;;;;;1999.90;999.90;;;;;;;;;;5059013;28;20044;-87
2023/10/29 04:01:06;;;;;;;1999.90;999.90;;;;;;;;;;5061415;28;20060;-87
2023/10/29 04:03:33;;;;;;;1999.90;999.90;;;;;;;;;;5058931;28;20048;-88
2023/10/29 04:06:00;;;;;;;1999.90;999.90;;;;;;;;;;5057327;28;20041;-88
2023/10/29 04:08:27;;;;;;;1999.90;999.90;;;;;;;;;;5061795;28;20053;-87
2023/10/29 04:10:54;;;;;;;1999.90;999.90;;;;;;;;;;5060723;28;20160;-88
2023/10/29 04:13:20;;;;;;;1999.90;999.90;;;;;;;;;;5063611;28;20045;-87
2023/10/29 04:15:47;;;;;;;1999.90;999.90;;;;;;;;;;5065704;28;20040;-87
2023/10/29 04:18:13;;;;;;;1999.90;999.90;;;;;;;;;;5061623;28;20546;-87
2023/10/29 04:20:40;;;;;;;1999.90;999.90;;;;;;;;;;5063262;28;20048;-88
2023/10/29 04:23:08;;;;;;;1999.90;999.90;;;;;;;;;;5058195;28;20487;-87
2023/10/29 04:25:35;;;;;;;1999.90;999.90;;;;;;;;;;5063948;28;20049;-87
2023/10/29 04:28:01;;;;;;;1999.90;999.90;;;;;;;;;;5064648;28;20052;-87
2023/10/29 04:30:28;;;;;;;1999.90;999.90;;;;;;;;;;5060023;28;20041;-87
2023/10/29 04:32:54;;;;;;;1999.90;999.90;;;;;;;;;;5060270;28;20049;-87
2023/10/29 04:35:21;;;;;;;1999.90;999.90;;;;;;;;;;5058051;28;20052;-88
2023/10/29 04:37:47;;;;;;;1999.90;999.90;;;;;;;;;;5062907;28;20057;-87
2023/10/29 04:40:16;;;;;;;1999.90;999.90;;;;;;;;;;5063982;28;20500;-88
2023/10/29 04:42:42;;;;;;;1999.90;999.90;;;;;;;;;;5058316;28;20044;-88
2023/10/29 04:45:11;;;;;;;1999.90;999.90;;;;;;;;;;5061660;28;20064;-87
2023/10/29 04:47:37;;;;;;;1999.90;999.90;;;;;;;;;;5061652;28;20489;-87
2023/10/29 04:50:05;;;;;;;1999.90;999.90;;;;;;;;;;5062914;28;20045;-86
2023/10/29 04:52:31;;;;;;;1999.90;999.90;;;;;;;;;;5059970;28;20055;-87
2023/10/29 04:54:58;;;;;;;1999.90;999.90;;;;;;;;;;5061964;28;20146;-87
2023/10/29 04:57:25;;;;;;;1999.90;999.90;;;;;;;;;;5064039;28;20480;-86
2023/10/29 04:59:53;;;;;;;1999.90;999.90;;;;;;;;;;5057447;28;20052;-86
2023/10/29 05:02:19;;;;;;;1999.90;999.90;;;;;;;;;;5061461;28;20430;-86
2023/10/29 05:04:46;;;;;;;1999.90;999.90;;;;;;;;;;5061154;28;20052;-86
2023/10/29 05:07:12;;;;;;;1999.90;999.90;;;;;;;;;;5064033;28;20416;-86
2023/10/29 05:09:39;;;;;;;1999.90;999.90;;;;;;;;;;5065092;28;20231;-86
2023/10/29 05:12:07;;;;;;;1999.90;999.90;;;;;;;;;;5064531;28;20055;-86
2023/10/29 05:14:35;;;;;;;1999.90;999.90;;;;;;;;;;5063712;28;20052;-85
2023/10/29 05:17:02;;;;;;;1999.90;999.90;;;;;;;;;;5059785;28;20152;-85
2023/10/29 05:19:28;;;;;;;1999.90;999.90;;;;;;;;;;5058877;28;20047;-86
2023/10/29 05:21:55;;;;;;;1999.90;999.90;;;;;;;;;;5062997;28;20046;-86
2023/10/29 05:24:22;;;;;;;1999.90;999.90;;;;;;;;;;5057156;28;20060;-85
2023/10/29 05:26:49;;;;;;;1999.90;999.90;;;;;;;;;;5058061;28;20096;-85
2023/10/29 05:29:16;;;;;;;1999.90;999.90;;;;;;;;;;5060291;28;20040;-85
2023/10/29 05:31:44;;;;;;;1999.90;999.90;;;;;;;;;;5060585;28;20107;-86
2023/10/29 05:34:10;;;;;;;1999.90;999.90;;;;;;;;;;5062931;28;20492;-86
2023/10/29 05:36:37;;;;;;;1999.90;999.90;;;;;;;;;;5062038;28;20052;-86
2023/10/29 05:39:05;;;;;;;1999.90;999.90;;;;;;;;;;5061234;28;20064;-87
2023/10/29 05:41:31;;;;;;;1999.90;999.90;;;;;;;;;;5057562;28;20041;-86
2023/10/29 05:43:58;;;;;;;1999.90;999.90;;;;;;;;;;5058959;28;20425;-86
2023/10/29 05:46:24;;;;;;;1999.90;999.90;;;;;;;;;;5060697;28;20044;-87
2023/10/29 05:48:52;;;;;;;1999.90;999.90;;;;;;;;;;5059250;28;20053;-87
2023/10/29 05:51:19;;;;;;;1999.90;999.90;;;;;;;;;;5063802;28;20098;-87
2023/10/29 05:53:46;;;;;;;1999.90;999.90;;;;;;;;;;5056784;28;20045;-87
2023/10/29 05:56:13;;;;;;;1999.90;999.90;;;;;;;;;;5059997;28;20076;-87
2023/10/29 05:58:39;;;;;;;1999.90;999.90;;;;;;;;;;5056556;28;20049;-86
2023/10/29 06:01:07;;;;;;;1999.90;999.90;;;;;;;;;;5056998;28;20387;-87
2023/10/29 06:03:34;;;;;;;1999.90;999.90;;;;;;;;;;5061982;28;20053;-88
2023/10/29 06:06:02;;;;;;;1999.90;999.90;;;;;;;;;;5062251;28;20102;-85
2023/10/29 06:08:29;;;;;;;1999.90;999.90;;;;;;;;;;5060132;28;20057;-86
2023/10/29 06:10:55;;;;;;;1999.90;999.90;;;;;;;;;;5063800;28;20045;-85
2023/10/29 06:13:22;;;;;;;1999.90;999.90;;;;;;;;;;5057465;28;20045;-88
2023/10/29 06:15:48;;;;;;;1999.90;999.90;;;;;;;;;;5060416;28;20421;-86
2023/10/29 06:18:16;;;;;;;1999.90;999.90;;;;;;;;;;5064901;28;20049;-87
2023/10/29 06:20:43;;;;;;;1999.90;999.90;;;;;;;;;;5063553;28;20488;-87
2023/10/29 06:23:11;;;;;;;1999.90;999.90;;;;;;;;;;5056291;28;20045;-87
2023/10/29 06:25:38;;;;;;;1999.90;999.90;;;;;;;;;;5062375;28;20041;-87
2023/10/29 06:28:05;;;;;;;1999.90;999.90;;;;;;;;;;5062693;28;20409;-87
2023/10/29 06:30:31;;;;;;;1999.90;999.90;;;;;;;;;;5059268;28;20068;-88
2023/10/29 06:33:00;;;;;;;1999.90;999.90;;;;;;;;;;5059296;28;20048;-86
2023/10/29 06:35:26;;;;;;;1999.90;999.90;;;;;;;;;;5059453;28;20041;-87
2023/10/29 06:37:53;;;;;;;1999.90;999.90;;;;;;;;;;5056659;28;20045;-87
2023/10/29 06:40:21;;;;;;;1999.90;999.90;;;;;;;;;;5061471;28;20098;-88
2023/10/29 06:42:47;;;;;;;1999.90;999.90;;;;;;;;;;5056320;28;20053;-87
2023/10/29 06:45:15;;;;;;;1999.90;999.90;;;;;;;;;;5059309;28;20059;-87
2023/10/29 06:47:42;;;;;;;1999.90;999.90;;;;;;;;;;5058852;28;20044;-88
2023/10/29 06:50:09;;;;;;;1999.90;999.90;;;;;;;;;;5054910;28;20064;-87
2023/10/29 06:52:36;;;;;;;1999.90;999.90;;;;;;;;;;5056160;28;20041;-87
2023/10/29 06:55:02;;;;;;;1999.90;999.90;;;;;;;;;;5058955;28;20147;-88
2023/10/29 06:57:30;;;;;;;1999.90;999.90;;;;;;;;;;5061519;28;20056;-87
2023/10/29 06:59:57;;;;;;;1999.90;999.90;;;;;;;;;;5060441;28;20049;-88
2023/10/29 07:02:24;;;;;;;1999.90;999.90;;;;;;;;;;5060377;28;20484;-86
2023/10/29 07:04:50;;;;;;;1999.90;999.90;;;;;;;;;;5056320;28;20060;-88
2023/10/29 07:07:17;;;;;;;1999.90;999.90;;;;;;;;;;5060921;28;20056;-88
2023/10/29 07:09:44;;;;;;;1999.90;999.90;;;;;;;;;;5055058;28;20048;-88
2023/10/29 07:12:10;;;;;;;1999.90;999.90;;;;;;;;;;5060368;28;20422;-87
2023/10/29 07:14:38;;;;;;;1999.90;999.90;;;;;;;;;;5059254;28;20049;-88
2023/10/29 07:17:05;;;;;;;1999.90;999.90;;;;;;;;;;5056146;28;20041;-88
2023/10/29 07:19:32;;;;;;;1999.90;999.90;;;;;;;;;;5060911;28;20044;-87
2023/10/29 07:21:58;;;;;;;1999.90;999.90;;;;;;;;;;5061643;28;20056;-88
2023/10/29 07:24:25;;;;;;;1999.90;999.90;;;;;;;;;;5061289;28;20068;-88
2023/10/29 07:26:52;;;;;;;1999.90;999.90;;;;;;;;;;5060133;28;20564;-90
2023/10/29 07:29:18;;;;;;;1999.90;999.90;;;;;;;;;;5060815;28;20049;-88
2023/10/29 07:31:47;;;;;;;1999.90;999.90;;;;;;;;;;5063157;28;20053;-89
2023/10/29 07:34:13;;;;;;;1999.90;999.90;;;;;;;;;;5052640;28;20417;-87
2023/10/29 07:36:40;;;;;;;1999.90;999.90;;;;;;;;;;5059280;28;20049;-90
2023/10/29 07:39:07;;;;;;;1999.90;999.90;;;;;;;;;;5060495;28;20057;-89
2023/10/29 07:41:33;;;;;;;1999.90;999.90;;;;;;;;;;5058911;28;20052;-88
2023/10/29 07:44:00;;;;;;;1999.90;999.90;;;;;;;;;;5060829;28;20103;-89
2023/10/29 07:46:26;;;;;;;1999.90;999.90;;;;;;;;;;5063107;28;20055;-88
2023/10/29 07:48:55;;;;;;;1999.90;999.90;;;;;;;;;;5064172;28;20045;-89
2023/10/29 07:51:21;;;;;;;1999.90;999.90;;;;;;;;;;5063339;28;20060;-89
2023/10/29 07:53:48;;;;;;;1999.90;999.90;;;;;;;;;;5064732;28;20492;-89
2023/10/29 07:56:15;;;;;;;1999.90;999.90;;;;;;;;;;5063989;28;20056;-89
2023/10/29 07:58:42;;;;;;;1999.90;999.90;;;;;;;;;;5061363;28;20084;-89
2023/10/29 08:01:12;;;;;;;1999.90;999.90;;;;;;;;;;5060321;28;20052;-88
2023/10/29 08:03:39;;;;;;;1999.90;999.90;;;;;;;;;;5061227;28;20046;-85
2023/10/29 08:06:07;;;;;;;1999.90;999.90;;;;;;;;;;5061013;28;20049;-84
2023/10/29 08:08:33;;;;;;;1999.90;999.90;;;;;;;;;;5059641;28;20041;-84
2023/10/29 08:11:00;;;;;;;1999.90;999.90;;;;;;;;;;5058143;28;20292;-84
2023/10/29 08:13:27;;;;;;;1999.90;999.90;;;;;;;;;;5060857;28;20052;-84
2023/10/29 08:15:54;;;;;;;1999.90;999.90;;;;;;;;;;5059605;28;20060;-85
2023/10/29 08:18:21;;;;;;;1999.90;999.90;;;;;;;;;;5064072;28;20077;-84
2023/10/29 08:20:48;;;;;;;1999.90;999.90;;;;;;;;;;5064648;28;20503;-84
2023/10/29 08:23:15;;;;;;;1999.90;999.90;;;;;;;;;;5061471;28;20163;-84
2023/10/29 08:25:42;;;;;;;1999.90;999.90;;;;;;;;;;5060932;28;20514;-84
2023/10/29 08:28:09;;;;;;;1999.90;999.90;;;;;;;;;;5057420;28;20044;-84
2023/10/29 08:30:35;;;;;;;1999.90;999.90;;;;;;;;;;5059906;28;20493;-85
2023/10/29 08:33:01;;;;;;;1999.90;999.90;;;;;;;;;;5067057;28;20048;-85
2023/10/29 08:35:28;;;;;;;1999.90;999.90;;;;;;;;;;5060292;28;20051;-85
2023/10/29 08:37:54;;;;;;;1999.90;999.90;;;;;;;;;;5054722;28;20052;-85
2023/10/29 08:40:22;;;;;;;1999.90;999.90;;;;;;;;;;5063781;28;20483;-85
2023/10/29 08:42:48;;;;;;;1999.90;999.90;;;;;;;;;;5059145;28;20405;-84
2023/10/29 08:45:15;;;;;;;1999.90;999.90;;;;;;;;;;5061470;28;20060;-84
2023/10/29 08:47:41;;;;;;;1999.90;999.90;;;;;;;;;;5062330;28;20468;-87
2023/10/29 08:50:09;;;;;;;1999.90;999.90;;;;;;;;;;5065981;28;20055;-85
2023/10/29 08:52:35;;;;;;;1999.90;999.90;;;;;;;;;;5065127;28;20044;-85
2023/10/29 08:55:03;;;;;;;1999.90;999.90;;;;;;;;;;5056735;28;20051;-84
2023/10/29 08:57:31;;;;;;;1999.90;999.90;;;;;;;;;;5064607;28;20048;-84
2023/10/29 08:59:58;;;;;;;1999.90;999.90;;;;;;;;;;5057293;28;20409;-85
2023/10/29 09:02:25;;;;;;;1999.90;999.90;;;;;;;;;;5063064;28;20044;-85
2023/10/29 09:04:56;;;;;;;1999.90;999.90;;;;;;;;;;5059417;28;20060;-85
2023/10/29 09:07:23;;;;;;;1999.90;999.90;;;;;;;;;;5060845;28;20048;-85
2023/10/29 09:09:50;;;;;;;1999.90;999.90;;;;;;;;;;5059934;28;20053;-85
2023/10/29 09:12:16;;;;;;;1999.90;999.90;;;;;;;;;;5060821;28;20051;-85
2023/10/29 09:14:44;;;;;;;1999.90;999.90;;;;;;;;;;5059862;28;20135;-85
2023/10/29 09:17:11;;;;;;;1999.90;999.90;;;;;;;;;;5062003;28;20052;-86
2023/10/29 09:19:37;;;;;;;1999.90;999.90;;;;;;;;;;5059104;28;20045;-85
2023/10/29 09:22:04;;;;;;;1999.90;999.90;;;;;;;;;;5062167;28;20048;-85
2023/10/29 09:24:30;;;;;;;1999.90;999.90;;;;;;;;;;5061482;28;20044;-85
2023/10/29 09:26:57;;;;;;;1999.90;999.90;;;;;;;;;;5061086;28;20482;-85
2023/10/29 09:29:24;;;;;;;1999.90;999.90;;;;;;;;;;5061097;28;20049;-85
2023/10/29 09:31:52;;;;;;;1999.90;999.90;;;;;;;;;;5061978;28;20048;-85
2023/10/29 09:34:18;;;;;;;1999.90;999.90;;;;;;;;;;5057649;28;20067;-86
2023/10/29 09:36:45;;;;;;;1999.90;999.90;;;;;;;;;;5060014;28;20079;-85
2023/10/29 09:39:12;;;;;;;1999.90;999.90;;;;;;;;;;5062598;28;20045;-85
2023/10/29 09:41:39;;;;;;;1999.90;999.90;;;;;;;;;;5061687;28;20060;-84
2023/10/29 09:44:07;;;;;;;1999.90;999.90;;;;;;;;;;5064789;28;20048;-85
2023/10/29 09:46:37;;;;;;;1999.90;999.90;;;;;;;;;;5060938;28;20056;-84
2023/10/29 09:49:05;;;;;;;1999.90;999.90;;;;;;;;;;5061020;28;20041;-84
2023/10/29 09:51:32;;;;;;;1999.90;999.90;;;;;;;;;;5058944;28;20524;-84
2023/10/29 09:54:00;;;;;;;1999.90;999.90;;;;;;;;;;5059346;28;20520;-84
2023/10/29 09:56:26;;;;;;;1999.90;999.90;;;;;;;;;;5062139;28;20053;-86
2023/10/29 09:58:53;;;;;;;1999.90;999.90;;;;;;;;;;5058812;28;20099;-84
2023/10/29 10:01:20;;;;;;;1999.90;999.90;;;;;;;;;;5061811;28;20045;-84
2023/10/29 10:03:47;;;;;;;1999.90;999.90;;;;;;;;;;5074946;28;20592;-84
2023/10/29 10:06:16;;;;;;;1999.90;999.90;;;;;;;;;;5074831;28;20135;-84
2023/10/29 10:08:43;;;;;;;1999.90;999.90;;;;;;;;;;5068432;28;20444;-83
2023/10/29 10:11:21;;;;;;;1999.90;999.90;;;;;;;;;;5063321;28;20052;-84
2023/10/29 10:13:47;;;;;;;1999.90;999.90;;;;;;;;;;5063911;28;20052;-84
2023/10/29 10:16:15;;;;;;;1999.90;999.90;;;;;;;;;;5066769;28;20561;-83
2023/10/29 10:18:52;;;;;;;1999.90;999.90;;;;;;;;;;5068682;28;20062;-84
2023/10/29 10:21:23;;;;;;;1999.90;999.90;;;;;;;;;;5062149;28;20067;-85
2023/10/29 10:23:50;;;;;;;1999.90;999.90;;;;;;;;;;5068711;28;20044;-85
2023/10/29 10:26:22;;;;;;;1999.90;999.90;;;;;;;;;;5067305;28;20057;-85
2023/10/29 10:28:56;;;;;;;1999.90;999.90;;;;;;;;;;5067128;28;20102;-84
2023/10/29 10:31:25;;;;;;;1999.90;999.90;;;;;;;;;;5066471;28;20044;-85
2023/10/29 10:33:52;;;;;;;1999.90;999.90;;;;;;;;;;5071404;28;20087;-85
2023/10/29 10:36:32;;;;;;;1999.90;999.90;;;;;;;;;;5064852;28;20410;-85
2023/10/29 10:39:00;;;;;;;1999.90;999.90;;;;;;;;;;5075650;28;20359;-86
2023/10/29 10:41:38;;;;;;;1999.90;999.90;;;;;;;;;;5081050;28;20059;-85
2023/10/29 10:44:09;;;;;;;1999.90;999.90;;;;;;;;;;5075569;28;20049;-86
2023/10/29 10:46:37;;;;;;;1999.90;999.90;;;;;;;;;;5074481;28;20052;-87
2023/10/29 10:49:06;;;;;;;1999.90;999.90;;;;;;;;;;5075703;28;20116;-85
2023/10/29 10:51:35;;;;;;;1999.90;999.90;;;;;;;;;;5074511;28;20051;-85
2023/10/29 10:54:03;;;;;;;1999.90;999.90;;;;;;;;;;5064513;28;20061;-85
2023/10/29 10:56:31;;;;;;;1999.90;999.90;;;;;;;;;;5068438;28;20447;-86
2023/10/29 10:58:59;;;;;;;1999.90;999.90;;;;;;;;;;5065506;28;20475;-87
2023/10/29 11:01:27;;;;;;;1999.90;999.90;;;;;;;;;;5070035;28;20135;-85
2023/10/29 11:03:56;;;;;;;1999.90;999.90;;;;;;;;;;5065285;28;20056;-86
2023/10/29 11:06:23;;;;;;;1999.90;999.90;;;;;;;;;;5071214;28;20064;-85
2023/10/29 11:08:51;;;;;;;1999.90;999.90;;;;;;;;;;5065697;28;20143;-87
2023/10/29 11:11:18;;;;;;;1999.90;999.90;;;;;;;;;;5063570;28;20048;-87
2023/10/29 11:13:44;;;;;;;1999.90;999.90;;;;;;;;;;5060328;28;20062;-86
2023/10/29 11:16:21;;;;;;;1999.90;999.90;;;;;;;;;;5063600;28;20110;-86
2023/10/29 11:18:47;;;;;;;1999.90;999.90;;;;;;;;;;5058317;28;20049;-86
2023/10/29 11:21:31;;;;;;;1999.90;999.90;;;;;;;;;;5060107;28;20045;-86
2023/10/29 11:24:18;;;;;;;1999.90;999.90;;;;;;;;;;5056648;28;20390;-86
2023/10/29 11:26:45;;;;;;;1999.90;999.90;;;;;;;;;;5058844;28;20603;-86
2023/10/29 11:29:41;;;;;;;1999.90;999.90;;;;;;;;;;5058239;28;20059;-86
2023/10/29 11:32:26;;;;;;;1999.90;999.90;;;;;;;;;;5060661;28;20048;-87
2023/10/29 11:35:20;;;;;;;1999.90;999.90;;;;;;;;;;5059723;28;20050;-86
2023/10/29 11:37:48;;;;;;;1999.90;999.90;;;;;;;;;;5063896;28;20040;-86
2023/10/29 11:40:36;;;;;;;1999.90;999.90;;;;;;;;;;5059871;28;20048;-85
2023/10/29 11:43:16;;;;;;;1999.90;999.90;;;;;;;;;;5055711;28;20478;-85
2023/10/29 11:45:53;;;;;;;1999.90;999.90;;;;;;;;;;5059005;28;20103;-85
2023/10/29 11:48:19;;;;;;;1999.90;999.90;;;;;;;;;;5055660;28;20056;-86
2023/10/29 11:51:19;;;;;;;1999.90;999.90;;;;;;;;;;5057168;28;20564;-85
2023/10/29 11:53:47;;;;;;;1999.90;999.90;;;;;;;;;;5055767;28;20053;-85
2023/10/29 11:56:18;;;;;;;1999.90;999.90;;;;;;;;;;5061531;28;20056;-86
2023/10/29 11:58:44;;;;;;;1999.90;999.90;;;;;;;;;;5056222;28;20045;-86
2023/10/29 12:01:12;;;;;;;1999.90;999.90;;;;;;;;;;5061737;28;20049;-85
2023/10/29 12:03:39;;;;;;;1999.90;999.90;;;;;;;;;;5056797;28;20047;-86
2023/10/29 12:06:05;;;;;;;1999.90;999.90;;;;;;;;;;5059985;28;20162;-86
2023/10/29 12:08:33;;;;;;;1999.90;999.90;;;;;;;;;;5059121;28;20053;-86
2023/10/29 12:11:00;;;;;;;1999.90;999.90;;;;;;;;;;5061684;28;20056;-86
2023/10/29 12:13:40;;;;;;;1999.90;999.90;;;;;;;;;;5061127;28;20440;-84
2023/10/29 12:16:07;;;;;;;1999.90;999.90;;;;;;;;;;5057498;28;20052;-86
2023/10/29 12:18:34;;;;;;;1999.90;999.90;;;;;;;;;;5060569;28;20504;-86
2023/10/29 12:21:05;;;;;;;1999.90;999.90;;;;;;;;;;5053345;28;20496;-86
2023/10/29 12:23:31;;;;;;;1999.90;999.90;;;;;;;;;;5056878;28;20044;-86
2023/10/29 12:26:01;;;;;;;1999.90;999.90;;;;;;;;;;5057672;28;20048;-86
2023/10/29 12:28:29;;;;;;;1999.90;999.90;;;;;;;;;;5053611;28;20045;-85
2023/10/29 12:30:57;;;;;;;1999.90;999.90;;;;;;;;;;5059176;28;20091;-85
2023/10/29 12:33:34;;;;;;;1999.90;999.90;;;;;;;;;;5060127;28;20090;-86
2023/10/29 12:36:03;;;;;;;1999.90;999.90;;;;;;;;;;5062402;28;20337;-85
2023/10/29 12:38:30;;;;;;;1999.90;999.90;;;;;;;;;;5064160;28;20037;-85
2023/10/29 12:41:08;;;;;;;1999.90;999.90;;;;;;;;;;5061099;28;20251;-85
2023/10/29 12:43:42;;;;;;;1999.90;999.90;;;;;;;;;;5061224;28;20049;-85
2023/10/29 12:46:10;;;;;;;1999.90;999.90;;;;;;;;;;5058757;28;20040;-84
2023/10/29 12:48:55;;;;;;;1999.90;999.90;;;;;;;;;;5065117;28;20044;-85
2023/10/29 12:51:26;;;;;;;1999.90;999.90;;;;;;;;;;5063525;28;20047;-85
2023/10/29 12:53:53;;;;;;;1999.90;999.90;;;;;;;;;;5059122;28;20128;-84
2023/10/29 12:56:19;;;;;;;1999.90;999.90;;;;;;;;;;5061016;28;20400;-83
2023/10/29 12:58:47;;;;;;;1999.90;999.90;;;;;;;;;;5062060;28;20059;-86
2023/10/29 13:01:14;;;;;;;1999.90;999.90;;;;;;;;;;5062008;28;20045;-85
2023/10/29 13:03:40;;;;;;;1999.90;999.90;;;;;;;;;;5063587;28;20052;-85
2023/10/29 13:06:08;;;;;;;1999.90;999.90;;;;;;;;;;5062666;28;20059;-85
2023/10/29 13:08:35;;;;;;;1999.90;999.90;;;;;;;;;;5063442;28;20048;-85
2023/10/29 13:11:02;;;;;;;1999.90;999.90;;;;;;;;;;5062179;28;20133;-85
2023/10/29 13:13:29;;;;;;;1999.90;999.90;;;;;;;;;;5066492;28;20056;-84
2023/10/29 13:15:58;;;;;;;1999.90;999.90;;;;;;;;;;5062329;28;20569;-84
2023/10/29 13:18:24;;;;;;;1999.90;999.90;;;;;;;;;;5061484;28;20053;-85
2023/10/29 13:20:58;;;;;;;1999.90;999.90;;;;;;;;;;5060999;28;20079;-84
2023/10/29 13:23:25;;;;;;;1999.90;999.90;;;;;;;;;;5058365;28;20477;-85
2023/10/29 13:25:55;;;;;;;1999.90;999.90;;;;;;;;;;5064118;28;20059;-87
2023/10/29 13:28:22;;;;;;;1999.90;999.90;;;;;;;;;;5059162;28;20032;-85
2023/10/29 13:30:53;;;;;;;1999.90;999.90;;;;;;;;;;5063709;28;20147;-85
2023/10/29 13:33:23;;;;;;;1999.90;999.90;;;;;;;;;;5059702;28;20095;-85
2023/10/29 13:35:50;;;;;;;1999.90;999.90;;;;;;;;;;5060638;28;20397;-86
2023/10/29 13:38:16;;;;;;;1999.90;999.90;;;;;;;;;;5063541;28;20383;-85
2023/10/29 13:40:44;;;;;;;1999.90;999.90;;;;;;;;;;5058194;28;20068;-86
2023/10/29 13:43:10;;;;;;;1999.90;999.90;;;;;;;;;;5064280;28;20551;-85
2023/10/29 13:45:37;;;;;;;1999.90;999.90;;;;;;;;;;5065121;28;20048;-85